Time;durP1;ratioP1;P1;durP2;ratioP2;P2;SDS_P1;SDS_P2;PMS_P1;PMS_P2;Temp;Humidity;BMP_temperature;BMP_pressure;BME280_temperature;BME280_humidity;BME280_pressure;Samples;Min_cycle;Max_cycle;Signal;HPM_P1;HPM_P2
2022/07/25 00:00:14;;;;;;;15;13.6;;;;;;;19.49;61.74023;95256.91;;;;
2022/07/25 00:01:15;;;;;;;14.8;13.5;;;;;;;19.4;62.26758;95254.91;;;;
2022/07/25 00:02:16;;;;;;;14.8;13.5;;;;;;;19.4;62.26758;95254.91;;;;
2022/07/25 00:03:16;;;;;;;14.8;13.5;;;;;;;19.4;62.26758;95254.91;;;;
2022/07/25 00:04:17;;;;;;;14.8;13.5;;;;;;;19.4;62.26758;95254.91;;;;
2022/07/25 00:05:17;;;;;;;14.8;13.5;;;;;;;19.4;62.26758;95254.91;;;;
2022/07/25 00:06:18;;;;;;;14.8;13.5;;;;;;;19.4;62.26758;95254.91;;;;
2022/07/25 00:07:18;;;;;;;14.8;13.5;;;;;;;19.4;62.26758;95254.91;;;;
2022/07/25 00:08:19;;;;;;;14.8;13.5;;;;;;;19.4;62.26758;95254.91;;;;
2022/07/25 00:09:19;;;;;;;14.8;13.5;;;;;;;19.4;62.26758;95254.91;;;;
2022/07/25 00:10:20;;;;;;;14.8;13.5;;;;;;;19.4;62.26758;95254.91;;;;
2022/07/25 00:11:20;;;;;;;15.85;14.45;;;;;;;19.23;62.83887;95243.05;;;;
2022/07/25 00:12:21;;;;;;;15.85;14.45;;;;;;;19.23;62.83887;95243.05;;;;
2022/07/25 00:13:21;;;;;;;15.85;14.45;;;;;;;19.23;62.83887;95243.05;;;;
2022/07/25 00:14:22;;;;;;;15.85;14.45;;;;;;;19.23;62.83887;95243.05;;;;
2022/07/25 00:15:22;;;;;;;15.85;14.45;;;;;;;19.23;62.83887;95243.05;;;;
2022/07/25 00:16:23;;;;;;;15.85;14.45;;;;;;;19.23;62.83887;95243.05;;;;
2022/07/25 00:17:24;;;;;;;15.85;14.45;;;;;;;19.23;62.83887;95243.05;;;;
2022/07/25 00:18:24;;;;;;;15.85;14.45;;;;;;;19.23;62.83887;95243.05;;;;
2022/07/25 00:19:25;;;;;;;15.85;14.45;;;;;;;19.23;62.83887;95243.05;;;;
2022/07/25 00:20:25;;;;;;;15.85;14.45;;;;;;;19.23;62.83887;95243.05;;;;
2022/07/25 00:21:26;;;;;;;15.85;14.45;;;;;;;19.23;62.83887;95243.05;;;;
2022/07/25 00:22:26;;;;;;;15.85;14.45;;;;;;;19.23;62.83887;95243.05;;;;
2022/07/25 00:23:27;;;;;;;15.85;14.45;;;;;;;19.23;62.83887;95243.05;;;;
2022/07/25 00:24:27;;;;;;;15.85;14.45;;;;;;;19.23;62.83887;95243.05;;;;
2022/07/25 00:25:28;;;;;;;15.85;14.45;;;;;;;19.23;62.83887;95243.05;;;;
2022/07/25 00:26:28;;;;;;;15.85;14.45;;;;;;;19.23;62.83887;95243.05;;;;
2022/07/25 00:27:29;;;;;;;15.85;14.45;;;;;;;19.23;62.83887;95243.05;;;;
2022/07/25 00:28:29;;;;;;;15.85;14.45;;;;;;;19.23;62.83887;95243.05;;;;
2022/07/25 00:29:30;;;;;;;15.85;14.45;;;;;;;19.23;62.83887;95243.05;;;;
2022/07/25 00:30:30;;;;;;;15.85;14.45;;;;;;;19.23;62.83887;95243.05;;;;
2022/07/25 00:31:31;;;;;;;15.85;14.45;;;;;;;19.23;62.83887;95243.05;;;;
2022/07/25 00:32:31;;;;;;;15.85;14.45;;;;;;;19.23;62.83887;95243.05;;;;
2022/07/25 00:33:32;;;;;;;15.75;14.4;;;;;;;18.99;63.93848;95229.89;;;;
2022/07/25 00:34:32;;;;;;;15.75;14.4;;;;;;;18.99;63.93848;95229.89;;;;
2022/07/25 00:35:33;;;;;;;15.75;14.4;;;;;;;18.99;63.93848;95229.89;;;;
2022/07/25 00:36:33;;;;;;;15.75;14.4;;;;;;;18.99;63.93848;95229.89;;;;
2022/07/25 00:37:34;;;;;;;15.75;14.4;;;;;;;18.99;63.93848;95229.89;;;;
2022/07/25 00:38:34;;;;;;;15.75;14.4;;;;;;;18.99;63.93848;95229.89;;;;
2022/07/25 00:39:35;;;;;;;15.75;14.4;;;;;;;18.99;63.93848;95229.89;;;;
2022/07/25 00:40:36;;;;;;;15.75;14.4;;;;;;;18.99;63.93848;95229.89;;;;
2022/07/25 00:41:36;;;;;;;15.75;14.4;;;;;;;18.99;63.93848;95229.89;;;;
2022/07/25 00:42:37;;;;;;;15.75;14.4;;;;;;;18.99;63.93848;95229.89;;;;
2022/07/25 00:43:38;;;;;;;16.4;14.8;;;;;;;18.91;64.41113;95228.66;;;;
2022/07/25 00:44:41;;;;;;;16.4;14.8;;;;;;;18.91;64.41113;95228.66;;;;
2022/07/25 00:45:42;;;;;;;16.4;14.8;;;;;;;18.91;64.41113;95228.66;;;;
2022/07/25 00:46:42;;;;;;;16.4;14.8;;;;;;;18.91;64.41113;95228.66;;;;
2022/07/25 00:47:43;;;;;;;16.4;14.8;;;;;;;18.91;64.41113;95228.66;;;;
2022/07/25 00:48:43;;;;;;;16.4;14.8;;;;;;;18.91;64.41113;95228.66;;;;
2022/07/25 00:49:44;;;;;;;16.4;14.8;;;;;;;18.91;64.41113;95228.66;;;;
2022/07/25 00:50:45;;;;;;;16.4;14.8;;;;;;;18.91;64.41113;95228.66;;;;
2022/07/25 00:51:45;;;;;;;16.4;14.8;;;;;;;18.91;64.41113;95228.66;;;;
2022/07/25 00:52:46;;;;;;;16.4;14.8;;;;;;;18.91;64.41113;95228.66;;;;
2022/07/25 00:53:47;;;;;;;16.4;14.8;;;;;;;18.91;64.41113;95228.66;;;;
2022/07/25 00:54:48;;;;;;;15.8;14.5;;;;;;;18.76;65.0166;95220.06;;;;
2022/07/25 00:55:48;;;;;;;15.8;14.5;;;;;;;18.76;65.0166;95220.06;;;;
2022/07/25 00:56:49;;;;;;;15.8;14.5;;;;;;;18.76;65.0166;95220.06;;;;
2022/07/25 00:57:50;;;;;;;15.8;14.5;;;;;;;18.76;65.0166;95220.06;;;;
2022/07/25 00:58:50;;;;;;;15.8;14.5;;;;;;;18.76;65.0166;95220.06;;;;
2022/07/25 00:59:51;;;;;;;15.8;14.5;;;;;;;18.76;65.0166;95220.06;;;;
2022/07/25 01:00:51;;;;;;;15.8;14.5;;;;;;;18.76;65.0166;95220.06;;;;
2022/07/25 01:01:52;;;;;;;15.8;14.5;;;;;;;18.76;65.0166;95220.06;;;;
2022/07/25 01:02:53;;;;;;;15.8;14.5;;;;;;;18.76;65.0166;95220.06;;;;
2022/07/25 01:03:53;;;;;;;15.8;14.5;;;;;;;18.76;65.0166;95220.06;;;;
2022/07/25 01:04:55;;;;;;;16.65;15.25;;;;;;;18.69;65.46582;95208.92;;;;
2022/07/25 01:05:56;;;;;;;16.65;15.25;;;;;;;18.69;65.46582;95208.92;;;;
2022/07/25 01:06:56;;;;;;;16.65;15.25;;;;;;;18.69;65.46582;95208.92;;;;
2022/07/25 01:07:58;;;;;;;16.65;15.25;;;;;;;18.69;65.46582;95208.92;;;;
2022/07/25 01:08:59;;;;;;;16.65;15.25;;;;;;;18.69;65.46582;95208.92;;;;
2022/07/25 01:10:00;;;;;;;16.65;15.25;;;;;;;18.69;65.46582;95208.92;;;;
2022/07/25 01:11:01;;;;;;;16.65;15.25;;;;;;;18.69;65.46582;95208.92;;;;
2022/07/25 01:12:02;;;;;;;16.65;15.25;;;;;;;18.69;65.46582;95208.92;;;;
2022/07/25 01:13:03;;;;;;;16.65;15.25;;;;;;;18.69;65.46582;95208.92;;;;
2022/07/25 01:14:04;;;;;;;16.65;15.25;;;;;;;18.69;65.46582;95208.92;;;;
2022/07/25 01:15:05;;;;;;;16.65;15.25;;;;;;;18.69;65.46582;95208.92;;;;
2022/07/25 01:16:07;;;;;;;16.6;15;;;;;;;18.53;65.9502;95203.52;;;;
2022/07/25 01:17:07;;;;;;;16.6;15;;;;;;;18.53;65.9502;95203.52;;;;
2022/07/25 01:18:08;;;;;;;16.6;15;;;;;;;18.53;65.9502;95203.52;;;;
2022/07/25 01:19:09;;;;;;;16.6;15;;;;;;;18.53;65.9502;95203.52;;;;
2022/07/25 01:20:09;;;;;;;16.6;15;;;;;;;18.53;65.9502;95203.52;;;;
2022/07/25 01:21:13;;;;;;;16.6;15;;;;;;;18.53;65.9502;95203.52;;;;
2022/07/25 01:22:14;;;;;;;16.6;15;;;;;;;18.53;65.9502;95203.52;;;;
2022/07/25 01:23:14;;;;;;;16.6;15;;;;;;;18.53;65.9502;95203.52;;;;
2022/07/25 01:24:15;;;;;;;16.6;15;;;;;;;18.53;65.9502;95203.52;;;;
2022/07/25 01:25:16;;;;;;;16.6;15;;;;;;;18.53;65.9502;95203.52;;;;
2022/07/25 01:26:17;;;;;;;16.8;15.35;;;;;;;18.46;66.41113;95208.29;;;;
2022/07/25 01:27:17;;;;;;;16.8;15.35;;;;;;;18.46;66.41113;95208.29;;;;
2022/07/25 01:28:18;;;;;;;16.8;15.35;;;;;;;18.46;66.41113;95208.29;;;;
2022/07/25 01:29:18;;;;;;;16.8;15.35;;;;;;;18.46;66.41113;95208.29;;;;
2022/07/25 01:30:19;;;;;;;16.8;15.35;;;;;;;18.46;66.41113;95208.29;;;;
2022/07/25 01:31:21;;;;;;;16.8;15.35;;;;;;;18.46;66.41113;95208.29;;;;
2022/07/25 01:32:21;;;;;;;16.8;15.35;;;;;;;18.46;66.41113;95208.29;;;;
2022/07/25 01:33:22;;;;;;;16.8;15.35;;;;;;;18.46;66.41113;95208.29;;;;
2022/07/25 01:34:22;;;;;;;16.8;15.35;;;;;;;18.46;66.41113;95208.29;;;;
2022/07/25 01:35:23;;;;;;;16.8;15.35;;;;;;;18.46;66.41113;95208.29;;;;
2022/07/25 01:36:23;;;;;;;16.8;15.35;;;;;;;18.46;66.41113;95208.29;;;;
2022/07/25 01:37:24;;;;;;;16.55;15.15;;;;;;;18.31;66.91602;95192.17;;;;
2022/07/25 01:38:25;;;;;;;16.55;15.15;;;;;;;18.31;66.91602;95192.17;;;;
2022/07/25 01:39:25;;;;;;;16.55;15.15;;;;;;;18.31;66.91602;95192.17;;;;
2022/07/25 01:40:25;;;;;;;16.55;15.15;;;;;;;18.31;66.91602;95192.17;;;;
2022/07/25 01:41:26;;;;;;;16.55;15.15;;;;;;;18.31;66.91602;95192.17;;;;
2022/07/25 01:42:27;;;;;;;16.55;15.15;;;;;;;18.31;66.91602;95192.17;;;;
2022/07/25 01:43:27;;;;;;;16.55;15.15;;;;;;;18.31;66.91602;95192.17;;;;
2022/07/25 01:44:28;;;;;;;16.55;15.15;;;;;;;18.31;66.91602;95192.17;;;;
2022/07/25 01:45:28;;;;;;;16.55;15.15;;;;;;;18.31;66.91602;95192.17;;;;
2022/07/25 01:46:29;;;;;;;16.55;15.15;;;;;;;18.31;66.91602;95192.17;;;;
2022/07/25 01:47:29;;;;;;;17.9;16.3;;;;;;;18.23;67.41895;95184.23;;;;
2022/07/25 01:48:30;;;;;;;17.9;16.3;;;;;;;18.23;67.41895;95184.23;;;;
2022/07/25 01:49:30;;;;;;;17.9;16.3;;;;;;;18.23;67.41895;95184.23;;;;
2022/07/25 01:50:31;;;;;;;17.9;16.3;;;;;;;18.23;67.41895;95184.23;;;;
2022/07/25 01:51:31;;;;;;;17.9;16.3;;;;;;;18.23;67.41895;95184.23;;;;
2022/07/25 01:52:32;;;;;;;17.9;16.3;;;;;;;18.23;67.41895;95184.23;;;;
2022/07/25 01:53:32;;;;;;;17.9;16.3;;;;;;;18.23;67.41895;95184.23;;;;
2022/07/25 01:54:33;;;;;;;17.9;16.3;;;;;;;18.23;67.41895;95184.23;;;;
2022/07/25 01:55:33;;;;;;;17.9;16.3;;;;;;;18.23;67.41895;95184.23;;;;
2022/07/25 01:56:34;;;;;;;17.9;16.3;;;;;;;18.23;67.41895;95184.23;;;;
2022/07/25 01:57:34;;;;;;;17.9;16.3;;;;;;;18.23;67.41895;95184.23;;;;
2022/07/25 01:58:35;;;;;;;16.9;15.35;;;;;;;18.08;67.87891;95185.5;;;;
2022/07/25 01:59:36;;;;;;;16.9;15.35;;;;;;;18.08;67.87891;95185.5;;;;
2022/07/25 02:00:38;;;;;;;16.9;15.35;;;;;;;18.08;67.87891;95185.5;;;;
2022/07/25 02:01:38;;;;;;;16.9;15.35;;;;;;;18.08;67.87891;95185.5;;;;
2022/07/25 02:02:39;;;;;;;16.9;15.35;;;;;;;18.08;67.87891;95185.5;;;;
2022/07/25 02:03:40;;;;;;;16.9;15.35;;;;;;;18.08;67.87891;95185.5;;;;
2022/07/25 02:04:40;;;;;;;16.9;15.35;;;;;;;18.08;67.87891;95185.5;;;;
2022/07/25 02:05:41;;;;;;;16.9;15.35;;;;;;;18.08;67.87891;95185.5;;;;
2022/07/25 02:06:42;;;;;;;16.9;15.35;;;;;;;18.08;67.87891;95185.5;;;;
2022/07/25 02:07:42;;;;;;;16.9;15.35;;;;;;;18.08;67.87891;95185.5;;;;
2022/07/25 02:08:42;;;;;;;17.15;15.65;;;;;;;18.01;68.30762;95168.48;;;;
2022/07/25 02:09:43;;;;;;;17.15;15.65;;;;;;;18.01;68.30762;95168.48;;;;
2022/07/25 02:10:43;;;;;;;17.15;15.65;;;;;;;18.01;68.30762;95168.48;;;;
2022/07/25 02:11:44;;;;;;;17.15;15.65;;;;;;;18.01;68.30762;95168.48;;;;
2022/07/25 02:12:44;;;;;;;17.15;15.65;;;;;;;18.01;68.30762;95168.48;;;;
2022/07/25 02:13:45;;;;;;;17.15;15.65;;;;;;;18.01;68.30762;95168.48;;;;
2022/07/25 02:14:46;;;;;;;17.15;15.65;;;;;;;18.01;68.30762;95168.48;;;;
2022/07/25 02:15:47;;;;;;;17.15;15.65;;;;;;;18.01;68.30762;95168.48;;;;
2022/07/25 02:16:48;;;;;;;17.15;15.65;;;;;;;18.01;68.30762;95168.48;;;;
2022/07/25 02:17:48;;;;;;;17.15;15.65;;;;;;;18.01;68.30762;95168.48;;;;
2022/07/25 02:18:49;;;;;;;17.15;15.65;;;;;;;18.01;68.30762;95168.48;;;;
2022/07/25 02:19:49;;;;;;;18.1;16.45;;;;;;;17.84;68.76367;95165.06;;;;
2022/07/25 02:20:50;;;;;;;18.1;16.45;;;;;;;17.84;68.76367;95165.06;;;;
2022/07/25 02:21:50;;;;;;;18.1;16.45;;;;;;;17.84;68.76367;95165.06;;;;
2022/07/25 02:22:51;;;;;;;18.1;16.45;;;;;;;17.84;68.76367;95165.06;;;;
2022/07/25 02:23:51;;;;;;;18.1;16.45;;;;;;;17.84;68.76367;95165.06;;;;
2022/07/25 02:24:52;;;;;;;18.1;16.45;;;;;;;17.84;68.76367;95165.06;;;;
2022/07/25 02:25:52;;;;;;;18.1;16.45;;;;;;;17.84;68.76367;95165.06;;;;
2022/07/25 02:26:53;;;;;;;18.1;16.45;;;;;;;17.84;68.76367;95165.06;;;;
2022/07/25 02:27:53;;;;;;;18.1;16.45;;;;;;;17.84;68.76367;95165.06;;;;
2022/07/25 02:28:54;;;;;;;18.1;16.45;;;;;;;17.84;68.76367;95165.06;;;;
2022/07/25 02:29:54;;;;;;;18.1;16.45;;;;;;;17.84;68.76367;95165.06;;;;
2022/07/25 02:30:55;;;;;;;17.35;15.85;;;;;;;17.78;69.20313;95158.2;;;;
2022/07/25 02:31:55;;;;;;;17.35;15.85;;;;;;;17.78;69.20313;95158.2;;;;
2022/07/25 02:32:56;;;;;;;17.35;15.85;;;;;;;17.78;69.20313;95158.2;;;;
2022/07/25 02:33:56;;;;;;;17.35;15.85;;;;;;;17.78;69.20313;95158.2;;;;
2022/07/25 02:34:57;;;;;;;17.35;15.85;;;;;;;17.78;69.20313;95158.2;;;;
2022/07/25 02:35:57;;;;;;;17.35;15.85;;;;;;;17.78;69.20313;95158.2;;;;
2022/07/25 02:36:58;;;;;;;17.35;15.85;;;;;;;17.78;69.20313;95158.2;;;;
2022/07/25 02:37:58;;;;;;;17.35;15.85;;;;;;;17.78;69.20313;95158.2;;;;
2022/07/25 02:38:59;;;;;;;17.35;15.85;;;;;;;17.78;69.20313;95158.2;;;;
2022/07/25 02:39:59;;;;;;;17.35;15.85;;;;;;;17.78;69.20313;95158.2;;;;
2022/07/25 02:41:00;;;;;;;17.4;15.95;;;;;;;17.63;69.61719;95151.83;;;;
2022/07/25 02:42:00;;;;;;;17.4;15.95;;;;;;;17.63;69.61719;95151.83;;;;
2022/07/25 02:43:01;;;;;;;17.4;15.95;;;;;;;17.63;69.61719;95151.83;;;;
2022/07/25 02:44:02;;;;;;;17.4;15.95;;;;;;;17.63;69.61719;95151.83;;;;
2022/07/25 02:45:03;;;;;;;17.4;15.95;;;;;;;17.63;69.61719;95151.83;;;;
2022/07/25 02:46:05;;;;;;;17.4;15.95;;;;;;;17.63;69.61719;95151.83;;;;
2022/07/25 02:47:06;;;;;;;17.4;15.95;;;;;;;17.63;69.61719;95151.83;;;;
2022/07/25 02:48:06;;;;;;;17.4;15.95;;;;;;;17.63;69.61719;95151.83;;;;
2022/07/25 02:49:07;;;;;;;17.4;15.95;;;;;;;17.63;69.61719;95151.83;;;;
2022/07/25 02:50:08;;;;;;;17.4;15.95;;;;;;;17.63;69.61719;95151.83;;;;
2022/07/25 02:51:09;;;;;;;17.4;15.95;;;;;;;17.63;69.61719;95151.83;;;;
2022/07/25 02:52:09;;;;;;;17.85;16.25;;;;;;;17.56;70.00098;95157.4;;;;
2022/07/25 02:53:10;;;;;;;17.85;16.25;;;;;;;17.56;70.00098;95157.4;;;;
2022/07/25 02:54:11;;;;;;;17.85;16.25;;;;;;;17.56;70.00098;95157.4;;;;
2022/07/25 02:55:11;;;;;;;17.85;16.25;;;;;;;17.56;70.00098;95157.4;;;;
2022/07/25 02:56:12;;;;;;;17.85;16.25;;;;;;;17.56;70.00098;95157.4;;;;
2022/07/25 02:57:12;;;;;;;17.85;16.25;;;;;;;17.56;70.00098;95157.4;;;;
2022/07/25 02:58:13;;;;;;;17.85;16.25;;;;;;;17.56;70.00098;95157.4;;;;
2022/07/25 02:59:14;;;;;;;17.85;16.25;;;;;;;17.56;70.00098;95157.4;;;;
2022/07/25 03:00:14;;;;;;;17.85;16.25;;;;;;;17.56;70.00098;95157.4;;;;
2022/07/25 03:01:16;;;;;;;17.85;16.25;;;;;;;17.56;70.00098;95157.4;;;;
2022/07/25 03:02:16;;;;;;;17.65;16.1;;;;;;;17.43;70.45117;95155.66;;;;
2022/07/25 03:03:17;;;;;;;17.65;16.1;;;;;;;17.43;70.45117;95155.66;;;;
2022/07/25 03:04:17;;;;;;;17.65;16.1;;;;;;;17.43;70.45117;95155.66;;;;
2022/07/25 03:05:18;;;;;;;17.65;16.1;;;;;;;17.43;70.45117;95155.66;;;;
2022/07/25 03:06:18;;;;;;;17.65;16.1;;;;;;;17.43;70.45117;95155.66;;;;
2022/07/25 03:07:19;;;;;;;17.65;16.1;;;;;;;17.43;70.45117;95155.66;;;;
2022/07/25 03:08:19;;;;;;;17.65;16.1;;;;;;;17.43;70.45117;95155.66;;;;
2022/07/25 03:09:20;;;;;;;17.65;16.1;;;;;;;17.43;70.45117;95155.66;;;;
2022/07/25 03:10:20;;;;;;;17.65;16.1;;;;;;;17.43;70.45117;95155.66;;;;
2022/07/25 03:11:21;;;;;;;17.65;16.1;;;;;;;17.43;70.45117;95155.66;;;;
2022/07/25 03:12:22;;;;;;;17.65;16.1;;;;;;;17.43;70.45117;95155.66;;;;
2022/07/25 03:13:22;;;;;;;18.35;16.65;;;;;;;17.37;70.79102;95158.03;;;;
2022/07/25 03:14:23;;;;;;;18.35;16.65;;;;;;;17.37;70.79102;95158.03;;;;
2022/07/25 03:15:23;;;;;;;18.35;16.65;;;;;;;17.37;70.79102;95158.03;;;;
2022/07/25 03:16:24;;;;;;;18.35;16.65;;;;;;;17.37;70.79102;95158.03;;;;
2022/07/25 03:17:24;;;;;;;18.35;16.65;;;;;;;17.37;70.79102;95158.03;;;;
2022/07/25 03:18:25;;;;;;;18.35;16.65;;;;;;;17.37;70.79102;95158.03;;;;
2022/07/25 03:19:25;;;;;;;18.35;16.65;;;;;;;17.37;70.79102;95158.03;;;;
2022/07/25 03:20:26;;;;;;;18.35;16.65;;;;;;;17.37;70.79102;95158.03;;;;
2022/07/25 03:21:26;;;;;;;18.35;16.65;;;;;;;17.37;70.79102;95158.03;;;;
2022/07/25 03:22:27;;;;;;;18.35;16.65;;;;;;;17.37;70.79102;95158.03;;;;
2022/07/25 03:23:28;;;;;;;18.1;16.5;;;;;;;17.26;71.14648;95158.89;;;;
2022/07/25 03:24:29;;;;;;;18.1;16.5;;;;;;;17.26;71.14648;95158.89;;;;
2022/07/25 03:25:30;;;;;;;18.1;16.5;;;;;;;17.26;71.14648;95158.89;;;;
2022/07/25 03:26:30;;;;;;;18.1;16.5;;;;;;;17.26;71.14648;95158.89;;;;
2022/07/25 03:27:31;;;;;;;18.1;16.5;;;;;;;17.26;71.14648;95158.89;;;;
2022/07/25 03:28:31;;;;;;;18.1;16.5;;;;;;;17.26;71.14648;95158.89;;;;
2022/07/25 03:29:31;;;;;;;18.1;16.5;;;;;;;17.26;71.14648;95158.89;;;;
2022/07/25 03:30:32;;;;;;;18.1;16.5;;;;;;;17.26;71.14648;95158.89;;;;
2022/07/25 03:31:33;;;;;;;18.1;16.5;;;;;;;17.26;71.14648;95158.89;;;;
2022/07/25 03:32:33;;;;;;;18.1;16.5;;;;;;;17.26;71.14648;95158.89;;;;
2022/07/25 03:33:34;;;;;;;18.1;16.5;;;;;;;17.26;71.14648;95158.89;;;;
2022/07/25 03:34:34;;;;;;;18.15;16.55;;;;;;;17.23;71.45898;95158.06;;;;
2022/07/25 03:35:35;;;;;;;18.15;16.55;;;;;;;17.23;71.45898;95158.06;;;;
2022/07/25 03:36:36;;;;;;;18.15;16.55;;;;;;;17.23;71.45898;95158.06;;;;
2022/07/25 03:37:37;;;;;;;18.15;16.55;;;;;;;17.23;71.45898;95158.06;;;;
2022/07/25 03:38:38;;;;;;;18.15;16.55;;;;;;;17.23;71.45898;95158.06;;;;
2022/07/25 03:39:38;;;;;;;18.15;16.55;;;;;;;17.23;71.45898;95158.06;;;;
2022/07/25 03:40:39;;;;;;;18.15;16.55;;;;;;;17.23;71.45898;95158.06;;;;
2022/07/25 03:41:39;;;;;;;18.15;16.55;;;;;;;17.23;71.45898;95158.06;;;;
2022/07/25 03:42:40;;;;;;;18.15;16.55;;;;;;;17.23;71.45898;95158.06;;;;
2022/07/25 03:43:41;;;;;;;18.15;16.55;;;;;;;17.23;71.45898;95158.06;;;;
2022/07/25 03:44:41;;;;;;;18.7;17;;;;;;;17.13;71.80273;95148.25;;;;
2022/07/25 03:45:42;;;;;;;18.7;17;;;;;;;17.13;71.80273;95148.25;;;;
2022/07/25 03:46:42;;;;;;;18.7;17;;;;;;;17.13;71.80273;95148.25;;;;
2022/07/25 03:47:43;;;;;;;18.7;17;;;;;;;17.13;71.80273;95148.25;;;;
2022/07/25 03:48:43;;;;;;;18.7;17;;;;;;;17.13;71.80273;95148.25;;;;
2022/07/25 03:49:44;;;;;;;18.7;17;;;;;;;17.13;71.80273;95148.25;;;;
2022/07/25 03:50:44;;;;;;;18.7;17;;;;;;;17.13;71.80273;95148.25;;;;
2022/07/25 03:51:45;;;;;;;18.7;17;;;;;;;17.13;71.80273;95148.25;;;;
2022/07/25 03:52:45;;;;;;;18.7;17;;;;;;;17.13;71.80273;95148.25;;;;
2022/07/25 03:54:02;;;;;;;18.7;17;;;;;;;17.13;71.80273;95148.25;;;;
2022/07/25 03:55:03;;;;;;;18.7;17;;;;;;;17.13;71.80273;95148.25;;;;
2022/07/25 03:56:04;;;;;;;17.65;16.1;;;;;;;17.13;72.06641;95147.3;;;;
2022/07/25 03:57:05;;;;;;;17.65;16.1;;;;;;;17.13;72.06641;95147.3;;;;
2022/07/25 03:58:06;;;;;;;17.65;16.1;;;;;;;17.13;72.06641;95147.3;;;;
2022/07/25 03:59:06;;;;;;;17.65;16.1;;;;;;;17.13;72.06641;95147.3;;;;
2022/07/25 04:00:07;;;;;;;17.65;16.1;;;;;;;17.13;72.06641;95147.3;;;;
2022/07/25 04:01:10;;;;;;;17.65;16.1;;;;;;;17.13;72.06641;95147.3;;;;
2022/07/25 04:02:11;;;;;;;17.65;16.1;;;;;;;17.13;72.06641;95147.3;;;;
2022/07/25 04:03:11;;;;;;;17.65;16.1;;;;;;;17.13;72.06641;95147.3;;;;
2022/07/25 04:04:12;;;;;;;17.65;16.1;;;;;;;17.13;72.06641;95147.3;;;;
2022/07/25 04:05:13;;;;;;;17.65;16.1;;;;;;;17.13;72.06641;95147.3;;;;
2022/07/25 04:06:13;;;;;;;17.95;16.25;;;;;;;17.13;72.31641;95151.45;;;;
2022/07/25 04:07:14;;;;;;;17.95;16.25;;;;;;;17.13;72.31641;95151.45;;;;
2022/07/25 04:08:14;;;;;;;17.95;16.25;;;;;;;17.13;72.31641;95151.45;;;;
2022/07/25 04:09:15;;;;;;;17.95;16.25;;;;;;;17.13;72.31641;95151.45;;;;
2022/07/25 04:10:15;;;;;;;17.95;16.25;;;;;;;17.13;72.31641;95151.45;;;;
2022/07/25 04:11:16;;;;;;;17.95;16.25;;;;;;;17.13;72.31641;95151.45;;;;
2022/07/25 04:12:16;;;;;;;17.95;16.25;;;;;;;17.13;72.31641;95151.45;;;;
2022/07/25 04:13:17;;;;;;;17.95;16.25;;;;;;;17.13;72.31641;95151.45;;;;
2022/07/25 04:14:17;;;;;;;17.95;16.25;;;;;;;17.13;72.31641;95151.45;;;;
2022/07/25 04:15:18;;;;;;;17.95;16.25;;;;;;;17.13;72.31641;95151.45;;;;
2022/07/25 04:16:19;;;;;;;17.95;16.25;;;;;;;17.13;72.31641;95151.45;;;;
2022/07/25 04:17:19;;;;;;;18.8;17.15;;;;;;;17.26;72.43457;95145.67;;;;
2022/07/25 04:18:20;;;;;;;18.8;17.15;;;;;;;17.26;72.43457;95145.67;;;;
2022/07/25 04:19:20;;;;;;;18.8;17.15;;;;;;;17.26;72.43457;95145.67;;;;
2022/07/25 04:20:20;;;;;;;18.8;17.15;;;;;;;17.26;72.43457;95145.67;;;;
2022/07/25 04:21:21;;;;;;;18.8;17.15;;;;;;;17.26;72.43457;95145.67;;;;
2022/07/25 04:22:22;;;;;;;18.8;17.15;;;;;;;17.26;72.43457;95145.67;;;;
2022/07/25 04:23:23;;;;;;;18.8;17.15;;;;;;;17.26;72.43457;95145.67;;;;
2022/07/25 04:24:23;;;;;;;18.8;17.15;;;;;;;17.26;72.43457;95145.67;;;;
2022/07/25 04:25:24;;;;;;;18.8;17.15;;;;;;;17.26;72.43457;95145.67;;;;
2022/07/25 04:26:24;;;;;;;18.8;17.15;;;;;;;17.26;72.43457;95145.67;;;;
2022/07/25 04:27:25;;;;;;;18.2;16.4;;;;;;;17.34;72.52539;95135.85;;;;
2022/07/25 04:28:25;;;;;;;18.2;16.4;;;;;;;17.34;72.52539;95135.85;;;;
2022/07/25 04:29:26;;;;;;;18.2;16.4;;;;;;;17.34;72.52539;95135.85;;;;
2022/07/25 04:30:26;;;;;;;18.2;16.4;;;;;;;17.34;72.52539;95135.85;;;;
2022/07/25 04:31:27;;;;;;;18.2;16.4;;;;;;;17.34;72.52539;95135.85;;;;
2022/07/25 04:32:28;;;;;;;18.2;16.4;;;;;;;17.34;72.52539;95135.85;;;;
2022/07/25 04:33:28;;;;;;;18.2;16.4;;;;;;;17.34;72.52539;95135.85;;;;
2022/07/25 04:34:29;;;;;;;18.2;16.4;;;;;;;17.34;72.52539;95135.85;;;;
2022/07/25 04:35:29;;;;;;;18.2;16.4;;;;;;;17.34;72.52539;95135.85;;;;
2022/07/25 04:36:30;;;;;;;18.2;16.4;;;;;;;17.34;72.52539;95135.85;;;;
2022/07/25 04:37:31;;;;;;;18.2;16.4;;;;;;;17.34;72.52539;95135.85;;;;
2022/07/25 04:38:32;;;;;;;18.2;16.5;;;;;;;17.49;72.59375;95135.42;;;;
2022/07/25 04:39:32;;;;;;;18.2;16.5;;;;;;;17.49;72.59375;95135.42;;;;
2022/07/25 04:40:33;;;;;;;18.2;16.5;;;;;;;17.49;72.59375;95135.42;;;;
2022/07/25 04:41:33;;;;;;;18.2;16.5;;;;;;;17.49;72.59375;95135.42;;;;
2022/07/25 04:42:34;;;;;;;18.2;16.5;;;;;;;17.49;72.59375;95135.42;;;;
2022/07/25 04:43:34;;;;;;;18.2;16.5;;;;;;;17.49;72.59375;95135.42;;;;
2022/07/25 04:44:35;;;;;;;18.2;16.5;;;;;;;17.49;72.59375;95135.42;;;;
2022/07/25 04:45:35;;;;;;;18.2;16.5;;;;;;;17.49;72.59375;95135.42;;;;
2022/07/25 04:46:36;;;;;;;18.2;16.5;;;;;;;17.49;72.59375;95135.42;;;;
2022/07/25 04:47:36;;;;;;;18.2;16.5;;;;;;;17.49;72.59375;95135.42;;;;
2022/07/25 04:48:37;;;;;;;18.2;16.5;;;;;;;17.49;72.59375;95135.42;;;;
2022/07/25 04:49:37;;;;;;;18.1;16.4;;;;;;;17.62;72.62598;95131.89;;;;
2022/07/25 04:50:38;;;;;;;18.1;16.4;;;;;;;17.62;72.62598;95131.89;;;;
2022/07/25 04:51:38;;;;;;;18.1;16.4;;;;;;;17.62;72.62598;95131.89;;;;
2022/07/25 04:52:39;;;;;;;18.1;16.4;;;;;;;17.62;72.62598;95131.89;;;;
2022/07/25 04:53:40;;;;;;;18.1;16.4;;;;;;;17.62;72.62598;95131.89;;;;
2022/07/25 04:54:40;;;;;;;18.1;16.4;;;;;;;17.62;72.62598;95131.89;;;;
2022/07/25 04:55:41;;;;;;;18.1;16.4;;;;;;;17.62;72.62598;95131.89;;;;
2022/07/25 04:56:41;;;;;;;18.1;16.4;;;;;;;17.62;72.62598;95131.89;;;;
2022/07/25 04:57:41;;;;;;;18.1;16.4;;;;;;;17.62;72.62598;95131.89;;;;
2022/07/25 04:58:42;;;;;;;18.1;16.4;;;;;;;17.62;72.62598;95131.89;;;;
2022/07/25 04:59:43;;;;;;;17.65;16.05;;;;;;;17.85;72.63086;95130.55;;;;
2022/07/25 05:00:43;;;;;;;17.65;16.05;;;;;;;17.85;72.63086;95130.55;;;;
2022/07/25 05:01:44;;;;;;;17.65;16.05;;;;;;;17.85;72.63086;95130.55;;;;
2022/07/25 05:02:44;;;;;;;17.65;16.05;;;;;;;17.85;72.63086;95130.55;;;;
2022/07/25 05:03:45;;;;;;;17.65;16.05;;;;;;;17.85;72.63086;95130.55;;;;
2022/07/25 05:04:45;;;;;;;17.65;16.05;;;;;;;17.85;72.63086;95130.55;;;;
2022/07/25 05:05:46;;;;;;;17.65;16.05;;;;;;;17.85;72.63086;95130.55;;;;
2022/07/25 05:06:46;;;;;;;17.65;16.05;;;;;;;17.85;72.63086;95130.55;;;;
2022/07/25 05:07:47;;;;;;;17.65;16.05;;;;;;;17.85;72.63086;95130.55;;;;
2022/07/25 05:08:48;;;;;;;17.65;16.05;;;;;;;17.85;72.63086;95130.55;;;;
2022/07/25 05:09:48;;;;;;;17.65;16.05;;;;;;;17.85;72.63086;95130.55;;;;
2022/07/25 05:10:49;;;;;;;17.3;15.7;;;;;;;18.16;72.64746;95113.69;;;;
2022/07/25 05:11:49;;;;;;;17.3;15.7;;;;;;;18.16;72.64746;95113.69;;;;
2022/07/25 05:12:50;;;;;;;17.3;15.7;;;;;;;18.16;72.64746;95113.69;;;;
2022/07/25 05:13:50;;;;;;;17.3;15.7;;;;;;;18.16;72.64746;95113.69;;;;
2022/07/25 05:14:51;;;;;;;17.3;15.7;;;;;;;18.16;72.64746;95113.69;;;;
2022/07/25 05:15:51;;;;;;;17.3;15.7;;;;;;;18.16;72.64746;95113.69;;;;
2022/07/25 05:16:52;;;;;;;17.3;15.7;;;;;;;18.16;72.64746;95113.69;;;;
2022/07/25 05:17:52;;;;;;;17.3;15.7;;;;;;;18.16;72.64746;95113.69;;;;
2022/07/25 05:18:53;;;;;;;17.3;15.7;;;;;;;18.16;72.64746;95113.69;;;;
2022/07/25 05:19:53;;;;;;;17.3;15.7;;;;;;;18.16;72.64746;95113.69;;;;
2022/07/25 05:20:54;;;;;;;16.8;15.3;;;;;;;18.67;72.29102;95109.29;;;;
2022/07/25 05:21:54;;;;;;;16.8;15.3;;;;;;;18.67;72.29102;95109.29;;;;
2022/07/25 05:22:55;;;;;;;16.8;15.3;;;;;;;18.67;72.29102;95109.29;;;;
2022/07/25 05:23:55;;;;;;;16.8;15.3;;;;;;;18.67;72.29102;95109.29;;;;
2022/07/25 05:24:56;;;;;;;16.8;15.3;;;;;;;18.67;72.29102;95109.29;;;;
2022/07/25 05:25:56;;;;;;;16.8;15.3;;;;;;;18.67;72.29102;95109.29;;;;
2022/07/25 05:26:56;;;;;;;16.8;15.3;;;;;;;18.67;72.29102;95109.29;;;;
2022/07/25 05:27:57;;;;;;;16.8;15.3;;;;;;;18.67;72.29102;95109.29;;;;
2022/07/25 05:28:57;;;;;;;16.8;15.3;;;;;;;18.67;72.29102;95109.29;;;;
2022/07/25 05:29:58;;;;;;;16.8;15.3;;;;;;;18.67;72.29102;95109.29;;;;
2022/07/25 05:30:59;;;;;;;16.8;15.3;;;;;;;18.67;72.29102;95109.29;;;;
2022/07/25 05:31:59;;;;;;;16.5;15.05;;;;;;;19.16;71.86914;95114.26;;;;
2022/07/25 05:33:00;;;;;;;16.5;15.05;;;;;;;19.16;71.86914;95114.26;;;;
2022/07/25 05:34:00;;;;;;;16.5;15.05;;;;;;;19.16;71.86914;95114.26;;;;
2022/07/25 05:35:01;;;;;;;16.5;15.05;;;;;;;19.16;71.86914;95114.26;;;;
2022/07/25 05:36:03;;;;;;;16.5;15.05;;;;;;;19.16;71.86914;95114.26;;;;
2022/07/25 05:37:05;;;;;;;16.5;15.05;;;;;;;19.16;71.86914;95114.26;;;;
2022/07/25 05:38:05;;;;;;;16.5;15.05;;;;;;;19.16;71.86914;95114.26;;;;
2022/07/25 05:39:06;;;;;;;16.5;15.05;;;;;;;19.16;71.86914;95114.26;;;;